sensor_id;sensor_type;location;lat;lon;timestamp;P1;durP1;ratioP1;P2;durP2;ratioP2
15764;SDS011;7983;50.744;7.086;2022-12-11T00:01:20;19.30;;;12.40;;
15764;SDS011;7983;50.744;7.086;2022-12-11T00:03:48;19.40;;;12.40;;
15764;SDS011;7983;50.744;7.086;2022-12-11T00:06:20;18.93;;;11.50;;
15764;SDS011;7983;50.744;7.086;2022-12-11T00:08:49;18.17;;;11.67;;
15764;SDS011;7983;50.744;7.086;2022-12-11T00:11:16;19.20;;;11.60;;
15764;SDS011;7983;50.744;7.086;2022-12-11T00:13:42;18.57;;;11.93;;
15764;SDS011;7983;50.744;7.086;2022-12-11T00:16:08;17.67;;;11.47;;
15764;SDS011;7983;50.744;7.086;2022-12-11T00:18:34;20.50;;;11.83;;
15764;SDS011;7983;50.744;7.086;2022-12-11T00:21:04;20.63;;;12.57;;
15764;SDS011;7983;50.744;7.086;2022-12-11T00:23:32;17.57;;;11.57;;
15764;SDS011;7983;50.744;7.086;2022-12-11T00:25:59;20.10;;;12.67;;
15764;SDS011;7983;50.744;7.086;2022-12-11T00:28:27;19.07;;;11.80;;
15764;SDS011;7983;50.744;7.086;2022-12-11T00:30:55;17.50;;;10.63;;
15764;SDS011;7983;50.744;7.086;2022-12-11T00:33:21;19.60;;;12.30;;
15764;SDS011;7983;50.744;7.086;2022-12-11T00:35:49;18.57;;;11.50;;
15764;SDS011;7983;50.744;7.086;2022-12-11T00:38:18;20.60;;;12.13;;
15764;SDS011;7983;50.744;7.086;2022-12-11T00:40:45;20.97;;;12.50;;
15764;SDS011;7983;50.744;7.086;2022-12-11T00:43:11;22.00;;;12.53;;
15764;SDS011;7983;50.744;7.086;2022-12-11T00:45:39;21.37;;;12.73;;
15764;SDS011;7983;50.744;7.086;2022-12-11T00:48:09;20.33;;;12.10;;
15764;SDS011;7983;50.744;7.086;2022-12-11T00:50:36;17.80;;;11.67;;
15764;SDS011;7983;50.744;7.086;2022-12-11T00:53:07;20.83;;;11.97;;
15764;SDS011;7983;50.744;7.086;2022-12-11T00:55:37;19.50;;;11.77;;
15764;SDS011;7983;50.744;7.086;2022-12-11T00:58:05;19.23;;;11.67;;
15764;SDS011;7983;50.744;7.086;2022-12-11T01:00:33;19.10;;;11.83;;
15764;SDS011;7983;50.744;7.086;2022-12-11T01:02:59;24.30;;;12.83;;
15764;SDS011;7983;50.744;7.086;2022-12-11T01:05:25;25.03;;;13.90;;
15764;SDS011;7983;50.744;7.086;2022-12-11T01:07:52;21.33;;;12.27;;
15764;SDS011;7983;50.744;7.086;2022-12-11T01:10:18;20.43;;;12.63;;
15764;SDS011;7983;50.744;7.086;2022-12-11T01:15:17;21.33;;;11.63;;
15764;SDS011;7983;50.744;7.086;2022-12-11T01:17:43;21.53;;;12.37;;
15764;SDS011;7983;50.744;7.086;2022-12-11T01:20:09;20.37;;;11.23;;
15764;SDS011;7983;50.744;7.086;2022-12-11T01:22:35;22.27;;;12.00;;
15764;SDS011;7983;50.744;7.086;2022-12-11T01:25:06;19.10;;;10.77;;
15764;SDS011;7983;50.744;7.086;2022-12-11T01:27:34;19.87;;;11.20;;
15764;SDS011;7983;50.744;7.086;2022-12-11T01:30:07;20.20;;;11.60;;
15764;SDS011;7983;50.744;7.086;2022-12-11T01:32:36;19.77;;;11.33;;
15764;SDS011;7983;50.744;7.086;2022-12-11T01:35:05;19.30;;;10.30;;
15764;SDS011;7983;50.744;7.086;2022-12-11T01:37:32;16.70;;;9.97;;
15764;SDS011;7983;50.744;7.086;2022-12-11T01:39:58;21.47;;;11.47;;
15764;SDS011;7983;50.744;7.086;2022-12-11T01:42:25;21.67;;;11.07;;
15764;SDS011;7983;50.744;7.086;2022-12-11T01:47:46;20.13;;;11.20;;
15764;SDS011;7983;50.744;7.086;2022-12-11T01:50:13;17.97;;;9.80;;
15764;SDS011;7983;50.744;7.086;2022-12-11T01:52:40;20.03;;;10.20;;
15764;SDS011;7983;50.744;7.086;2022-12-11T01:55:08;17.37;;;9.37;;
15764;SDS011;7983;50.744;7.086;2022-12-11T01:57:37;19.03;;;9.97;;
15764;SDS011;7983;50.744;7.086;2022-12-11T02:00:06;19.70;;;10.63;;
15764;SDS011;7983;50.744;7.086;2022-12-11T02:02:32;18.83;;;10.17;;
15764;SDS011;7983;50.744;7.086;2022-12-11T02:04:58;19.67;;;11.13;;
15764;SDS011;7983;50.744;7.086;2022-12-11T02:07:29;22.57;;;11.20;;
15764;SDS011;7983;50.744;7.086;2022-12-11T02:10:09;20.00;;;10.97;;
15764;SDS011;7983;50.744;7.086;2022-12-11T02:17:53;21.77;;;10.47;;
15764;SDS011;7983;50.744;7.086;2022-12-11T02:20:37;19.70;;;10.13;;
15764;SDS011;7983;50.744;7.086;2022-12-11T02:23:15;17.43;;;10.00;;
15764;SDS011;7983;50.744;7.086;2022-12-11T02:28:54;19.73;;;10.27;;
15764;SDS011;7983;50.744;7.086;2022-12-11T02:31:26;20.50;;;10.30;;
15764;SDS011;7983;50.744;7.086;2022-12-11T02:36:34;18.80;;;9.90;;
15764;SDS011;7983;50.744;7.086;2022-12-11T02:39:04;20.47;;;11.07;;
15764;SDS011;7983;50.744;7.086;2022-12-11T02:41:32;20.80;;;10.67;;
15764;SDS011;7983;50.744;7.086;2022-12-11T02:43:59;18.97;;;9.97;;
15764;SDS011;7983;50.744;7.086;2022-12-11T02:46:27;19.43;;;10.17;;
15764;SDS011;7983;50.744;7.086;2022-12-11T02:48:55;19.30;;;9.53;;
15764;SDS011;7983;50.744;7.086;2022-12-11T02:51:28;19.93;;;9.93;;
15764;SDS011;7983;50.744;7.086;2022-12-11T02:54:02;16.30;;;9.43;;
15764;SDS011;7983;50.744;7.086;2022-12-11T02:57:32;17.37;;;9.17;;
15764;SDS011;7983;50.744;7.086;2022-12-11T02:59:32;15.80;;;8.67;;
15764;SDS011;7983;50.744;7.086;2022-12-11T03:02:02;16.13;;;8.40;;
15764;SDS011;7983;50.744;7.086;2022-12-11T03:04:28;16.33;;;8.50;;
15764;SDS011;7983;50.744;7.086;2022-12-11T03:06:55;17.10;;;9.07;;
15764;SDS011;7983;50.744;7.086;2022-12-11T03:09:26;17.13;;;9.00;;
15764;SDS011;7983;50.744;7.086;2022-12-11T03:11:54;18.33;;;9.47;;
15764;SDS011;7983;50.744;7.086;2022-12-11T03:14:22;16.87;;;9.00;;
15764;SDS011;7983;50.744;7.086;2022-12-11T03:16:54;18.47;;;10.03;;
15764;SDS011;7983;50.744;7.086;2022-12-11T03:19:33;18.37;;;9.93;;
15764;SDS011;7983;50.744;7.086;2022-12-11T03:22:08;16.43;;;8.67;;
15764;SDS011;7983;50.744;7.086;2022-12-11T03:24:40;16.97;;;8.87;;
15764;SDS011;7983;50.744;7.086;2022-12-11T03:29:56;15.43;;;8.50;;
15764;SDS011;7983;50.744;7.086;2022-12-11T03:32:28;15.97;;;8.63;;
15764;SDS011;7983;50.744;7.086;2022-12-11T03:37:43;14.17;;;7.97;;
15764;SDS011;7983;50.744;7.086;2022-12-11T03:40:18;14.23;;;8.00;;
15764;SDS011;7983;50.744;7.086;2022-12-11T03:42:45;16.33;;;9.03;;
15764;SDS011;7983;50.744;7.086;2022-12-11T03:45:14;15.33;;;8.23;;
15764;SDS011;7983;50.744;7.086;2022-12-11T03:47:41;13.83;;;8.17;;
15764;SDS011;7983;50.744;7.086;2022-12-11T03:50:11;14.47;;;8.07;;
15764;SDS011;7983;50.744;7.086;2022-12-11T03:52:40;11.57;;;7.23;;
15764;SDS011;7983;50.744;7.086;2022-12-11T03:55:08;14.07;;;7.77;;
15764;SDS011;7983;50.744;7.086;2022-12-11T03:57:38;14.77;;;8.70;;
15764;SDS011;7983;50.744;7.086;2022-12-11T04:00:09;14.40;;;8.20;;
15764;SDS011;7983;50.744;7.086;2022-12-11T04:02:39;13.47;;;7.53;;
15764;SDS011;7983;50.744;7.086;2022-12-11T04:05:06;13.93;;;7.53;;
15764;SDS011;7983;50.744;7.086;2022-12-11T04:07:35;15.63;;;7.80;;
15764;SDS011;7983;50.744;7.086;2022-12-11T04:10:01;12.27;;;7.27;;
15764;SDS011;7983;50.744;7.086;2022-12-11T04:12:27;12.73;;;7.50;;
15764;SDS011;7983;50.744;7.086;2022-12-11T04:14:53;14.77;;;7.93;;
15764;SDS011;7983;50.744;7.086;2022-12-11T04:17:31;13.63;;;8.03;;
15764;SDS011;7983;50.744;7.086;2022-12-11T04:20:17;13.20;;;7.77;;
15764;SDS011;7983;50.744;7.086;2022-12-11T04:23:10;13.50;;;8.00;;
15764;SDS011;7983;50.744;7.086;2022-12-11T04:26:06;14.37;;;7.47;;
15764;SDS011;7983;50.744;7.086;2022-12-11T04:28:39;14.40;;;8.00;;
15764;SDS011;7983;50.744;7.086;2022-12-11T04:31:05;12.33;;;7.20;;
15764;SDS011;7983;50.744;7.086;2022-12-11T04:33:40;12.40;;;7.73;;
15764;SDS011;7983;50.744;7.086;2022-12-11T04:36:06;13.97;;;8.07;;
15764;SDS011;7983;50.744;7.086;2022-12-11T04:38:35;14.13;;;7.77;;
15764;SDS011;7983;50.744;7.086;2022-12-11T04:41:05;15.47;;;8.10;;
15764;SDS011;7983;50.744;7.086;2022-12-11T04:43:32;17.17;;;8.20;;
15764;SDS011;7983;50.744;7.086;2022-12-11T04:46:01;14.87;;;8.30;;
15764;SDS011;7983;50.744;7.086;2022-12-11T04:48:28;14.17;;;7.90;;
15764;SDS011;7983;50.744;7.086;2022-12-11T04:50:54;15.50;;;8.20;;
15764;SDS011;7983;50.744;7.086;2022-12-11T04:53:19;14.40;;;8.07;;
15764;SDS011;7983;50.744;7.086;2022-12-11T04:55:47;15.30;;;8.83;;
15764;SDS011;7983;50.744;7.086;2022-12-11T04:58:15;13.93;;;8.07;;
15764;SDS011;7983;50.744;7.086;2022-12-11T05:00:41;16.50;;;8.83;;
15764;SDS011;7983;50.744;7.086;2022-12-11T05:03:07;15.60;;;8.53;;
15764;SDS011;7983;50.744;7.086;2022-12-11T05:05:32;17.50;;;8.93;;
15764;SDS011;7983;50.744;7.086;2022-12-11T05:07:58;16.80;;;8.93;;
15764;SDS011;7983;50.744;7.086;2022-12-11T05:10:24;16.27;;;9.00;;
15764;SDS011;7983;50.744;7.086;2022-12-11T05:12:51;17.07;;;8.47;;
15764;SDS011;7983;50.744;7.086;2022-12-11T05:15:22;15.07;;;8.27;;
15764;SDS011;7983;50.744;7.086;2022-12-11T05:17:50;15.17;;;8.30;;
15764;SDS011;7983;50.744;7.086;2022-12-11T05:20:15;13.40;;;7.50;;
15764;SDS011;7983;50.744;7.086;2022-12-11T05:22:45;14.10;;;7.90;;
15764;SDS011;7983;50.744;7.086;2022-12-11T05:25:11;15.33;;;7.80;;
15764;SDS011;7983;50.744;7.086;2022-12-11T05:27:39;13.87;;;7.87;;
15764;SDS011;7983;50.744;7.086;2022-12-11T05:30:04;12.90;;;7.83;;
15764;SDS011;7983;50.744;7.086;2022-12-11T05:32:31;15.43;;;8.50;;
15764;SDS011;7983;50.744;7.086;2022-12-11T05:34:58;16.20;;;8.57;;
15764;SDS011;7983;50.744;7.086;2022-12-11T05:37:24;16.27;;;8.53;;
15764;SDS011;7983;50.744;7.086;2022-12-11T05:39:49;13.97;;;8.30;;
15764;SDS011;7983;50.744;7.086;2022-12-11T05:42:15;14.70;;;8.43;;
15764;SDS011;7983;50.744;7.086;2022-12-11T05:44:43;14.33;;;8.50;;
15764;SDS011;7983;50.744;7.086;2022-12-11T05:47:09;15.90;;;8.57;;
15764;SDS011;7983;50.744;7.086;2022-12-11T05:49:35;15.37;;;8.50;;
15764;SDS011;7983;50.744;7.086;2022-12-11T05:52:00;16.33;;;8.77;;
15764;SDS011;7983;50.744;7.086;2022-12-11T05:54:28;17.33;;;8.83;;
15764;SDS011;7983;50.744;7.086;2022-12-11T05:56:55;16.03;;;8.37;;
15764;SDS011;7983;50.744;7.086;2022-12-11T05:59:22;15.03;;;8.80;;
15764;SDS011;7983;50.744;7.086;2022-12-11T06:01:50;16.17;;;9.00;;
15764;SDS011;7983;50.744;7.086;2022-12-11T06:04:26;18.03;;;8.93;;
15764;SDS011;7983;50.744;7.086;2022-12-11T06:06:54;18.47;;;9.27;;
15764;SDS011;7983;50.744;7.086;2022-12-11T06:09:20;19.00;;;9.73;;
15764;SDS011;7983;50.744;7.086;2022-12-11T06:11:45;18.47;;;9.47;;
15764;SDS011;7983;50.744;7.086;2022-12-11T06:14:11;21.23;;;10.07;;
15764;SDS011;7983;50.744;7.086;2022-12-11T06:16:37;20.63;;;10.40;;
15764;SDS011;7983;50.744;7.086;2022-12-11T06:19:05;21.63;;;10.63;;
15764;SDS011;7983;50.744;7.086;2022-12-11T06:21:36;24.10;;;11.67;;
15764;SDS011;7983;50.744;7.086;2022-12-11T06:24:02;27.43;;;12.57;;
15764;SDS011;7983;50.744;7.086;2022-12-11T06:26:29;26.23;;;13.53;;
15764;SDS011;7983;50.744;7.086;2022-12-11T06:28:56;24.37;;;12.17;;
15764;SDS011;7983;50.744;7.086;2022-12-11T06:31:24;24.77;;;12.20;;
15764;SDS011;7983;50.744;7.086;2022-12-11T06:33:50;26.23;;;12.60;;
15764;SDS011;7983;50.744;7.086;2022-12-11T06:36:20;27.33;;;13.53;;
15764;SDS011;7983;50.744;7.086;2022-12-11T06:38:47;29.13;;;14.07;;
15764;SDS011;7983;50.744;7.086;2022-12-11T06:41:16;22.50;;;11.80;;
15764;SDS011;7983;50.744;7.086;2022-12-11T06:43:42;26.83;;;13.17;;
15764;SDS011;7983;50.744;7.086;2022-12-11T06:46:14;25.40;;;13.07;;
15764;SDS011;7983;50.744;7.086;2022-12-11T06:48:43;27.20;;;12.40;;
15764;SDS011;7983;50.744;7.086;2022-12-11T06:51:19;26.70;;;12.63;;
15764;SDS011;7983;50.744;7.086;2022-12-11T06:53:50;27.40;;;13.10;;
15764;SDS011;7983;50.744;7.086;2022-12-11T06:56:17;29.97;;;13.30;;
15764;SDS011;7983;50.744;7.086;2022-12-11T06:58:51;27.27;;;13.63;;
15764;SDS011;7983;50.744;7.086;2022-12-11T07:01:25;24.77;;;12.30;;
15764;SDS011;7983;50.744;7.086;2022-12-11T07:03:55;28.20;;;13.23;;
15764;SDS011;7983;50.744;7.086;2022-12-11T07:06:22;24.83;;;13.00;;
15764;SDS011;7983;50.744;7.086;2022-12-11T07:08:50;27.53;;;14.30;;
15764;SDS011;7983;50.744;7.086;2022-12-11T07:11:18;26.30;;;13.03;;
15764;SDS011;7983;50.744;7.086;2022-12-11T07:13:44;27.57;;;13.60;;
15764;SDS011;7983;50.744;7.086;2022-12-11T07:16:13;27.17;;;12.97;;
15764;SDS011;7983;50.744;7.086;2022-12-11T07:18:41;25.47;;;12.07;;
15764;SDS011;7983;50.744;7.086;2022-12-11T07:21:11;26.43;;;13.67;;
15764;SDS011;7983;50.744;7.086;2022-12-11T07:23:40;26.87;;;13.80;;
15764;SDS011;7983;50.744;7.086;2022-12-11T07:26:09;28.07;;;13.83;;
15764;SDS011;7983;50.744;7.086;2022-12-11T07:28:37;31.77;;;15.13;;
15764;SDS011;7983;50.744;7.086;2022-12-11T07:31:11;24.77;;;13.67;;
15764;SDS011;7983;50.744;7.086;2022-12-11T07:33:38;28.20;;;14.43;;
15764;SDS011;7983;50.744;7.086;2022-12-11T07:36:07;25.13;;;13.30;;
15764;SDS011;7983;50.744;7.086;2022-12-11T07:38:44;28.90;;;13.80;;
15764;SDS011;7983;50.744;7.086;2022-12-11T07:41:11;28.07;;;14.00;;
15764;SDS011;7983;50.744;7.086;2022-12-11T07:43:37;25.73;;;13.70;;
15764;SDS011;7983;50.744;7.086;2022-12-11T07:46:05;24.13;;;13.07;;
15764;SDS011;7983;50.744;7.086;2022-12-11T07:48:37;26.63;;;13.60;;
15764;SDS011;7983;50.744;7.086;2022-12-11T07:51:15;22.87;;;13.00;;
15764;SDS011;7983;50.744;7.086;2022-12-11T07:53:47;25.67;;;12.90;;
15764;SDS011;7983;50.744;7.086;2022-12-11T07:56:14;21.77;;;12.37;;
15764;SDS011;7983;50.744;7.086;2022-12-11T07:58:43;26.27;;;13.43;;
15764;SDS011;7983;50.744;7.086;2022-12-11T08:01:12;24.20;;;12.77;;
15764;SDS011;7983;50.744;7.086;2022-12-11T08:03:40;26.07;;;12.83;;
15764;SDS011;7983;50.744;7.086;2022-12-11T08:06:08;27.77;;;14.53;;
15764;SDS011;7983;50.744;7.086;2022-12-11T08:08:34;23.00;;;12.90;;
15764;SDS011;7983;50.744;7.086;2022-12-11T08:11:02;25.33;;;13.47;;
15764;SDS011;7983;50.744;7.086;2022-12-11T08:13:32;25.97;;;13.37;;
15764;SDS011;7983;50.744;7.086;2022-12-11T08:15:58;25.17;;;13.23;;
15764;SDS011;7983;50.744;7.086;2022-12-11T08:18:27;26.43;;;13.77;;
15764;SDS011;7983;50.744;7.086;2022-12-11T08:20:52;26.47;;;14.23;;
15764;SDS011;7983;50.744;7.086;2022-12-11T08:23:20;26.57;;;15.20;;
15764;SDS011;7983;50.744;7.086;2022-12-11T08:25:48;23.37;;;13.73;;
15764;SDS011;7983;50.744;7.086;2022-12-11T08:28:16;25.33;;;13.17;;
15764;SDS011;7983;50.744;7.086;2022-12-11T08:30:41;27.63;;;13.50;;
15764;SDS011;7983;50.744;7.086;2022-12-11T08:33:09;28.23;;;14.47;;
15764;SDS011;7983;50.744;7.086;2022-12-11T08:35:37;29.43;;;16.80;;
15764;SDS011;7983;50.744;7.086;2022-12-11T08:38:03;26.73;;;15.13;;
15764;SDS011;7983;50.744;7.086;2022-12-11T08:40:29;29.90;;;15.93;;
15764;SDS011;7983;50.744;7.086;2022-12-11T08:42:57;29.30;;;16.03;;
15764;SDS011;7983;50.744;7.086;2022-12-11T08:45:22;27.20;;;14.93;;
15764;SDS011;7983;50.744;7.086;2022-12-11T08:47:48;23.47;;;13.80;;
15764;SDS011;7983;50.744;7.086;2022-12-11T08:50:14;25.93;;;14.67;;
15764;SDS011;7983;50.744;7.086;2022-12-11T08:52:39;30.03;;;15.13;;
15764;SDS011;7983;50.744;7.086;2022-12-11T08:55:05;27.97;;;15.40;;
15764;SDS011;7983;50.744;7.086;2022-12-11T08:57:33;24.77;;;13.63;;
15764;SDS011;7983;50.744;7.086;2022-12-11T08:59:59;31.17;;;15.40;;
15764;SDS011;7983;50.744;7.086;2022-12-11T09:02:27;27.70;;;14.33;;
15764;SDS011;7983;50.744;7.086;2022-12-11T09:04:53;24.27;;;13.67;;
15764;SDS011;7983;50.744;7.086;2022-12-11T09:07:20;24.37;;;13.23;;
15764;SDS011;7983;50.744;7.086;2022-12-11T09:09:52;26.37;;;13.80;;
15764;SDS011;7983;50.744;7.086;2022-12-11T09:12:21;25.57;;;14.60;;
15764;SDS011;7983;50.744;7.086;2022-12-11T09:14:47;29.77;;;15.43;;
15764;SDS011;7983;50.744;7.086;2022-12-11T09:17:12;30.50;;;16.73;;
15764;SDS011;7983;50.744;7.086;2022-12-11T09:19:40;27.10;;;15.43;;
15764;SDS011;7983;50.744;7.086;2022-12-11T09:22:06;29.33;;;15.80;;
15764;SDS011;7983;50.744;7.086;2022-12-11T09:24:35;25.00;;;14.90;;
15764;SDS011;7983;50.744;7.086;2022-12-11T09:27:01;23.30;;;13.10;;
15764;SDS011;7983;50.744;7.086;2022-12-11T09:29:30;25.30;;;14.30;;
15764;SDS011;7983;50.744;7.086;2022-12-11T09:31:56;25.27;;;15.03;;
15764;SDS011;7983;50.744;7.086;2022-12-11T09:34:22;24.10;;;14.07;;
15764;SDS011;7983;50.744;7.086;2022-12-11T09:36:50;27.57;;;15.30;;
15764;SDS011;7983;50.744;7.086;2022-12-11T09:39:18;24.60;;;13.60;;
15764;SDS011;7983;50.744;7.086;2022-12-11T09:41:52;23.43;;;13.23;;
15764;SDS011;7983;50.744;7.086;2022-12-11T09:50:12;25.03;;;13.60;;
15764;SDS011;7983;50.744;7.086;2022-12-11T09:55:48;26.43;;;14.67;;
15764;SDS011;7983;50.744;7.086;2022-12-11T10:12:38;20.10;;;12.23;;
15764;SDS011;7983;50.744;7.086;2022-12-11T10:18:17;20.43;;;12.37;;
15764;SDS011;7983;50.744;7.086;2022-12-11T10:20:47;20.40;;;13.23;;
15764;SDS011;7983;50.744;7.086;2022-12-11T10:23:21;21.73;;;13.43;;
15764;SDS011;7983;50.744;7.086;2022-12-11T10:25:55;21.63;;;12.67;;
15764;SDS011;7983;50.744;7.086;2022-12-11T10:28:28;22.27;;;13.53;;
15764;SDS011;7983;50.744;7.086;2022-12-11T10:31:03;23.87;;;13.00;;
15764;SDS011;7983;50.744;7.086;2022-12-11T10:36:29;20.57;;;12.83;;
15764;SDS011;7983;50.744;7.086;2022-12-11T10:38:58;19.87;;;11.97;;
15764;SDS011;7983;50.744;7.086;2022-12-11T10:41:58;20.97;;;12.67;;
15764;SDS011;7983;50.744;7.086;2022-12-11T10:46:47;18.57;;;11.97;;
15764;SDS011;7983;50.744;7.086;2022-12-11T10:49:30;20.17;;;12.07;;
15764;SDS011;7983;50.744;7.086;2022-12-11T10:52:00;24.20;;;13.10;;
15764;SDS011;7983;50.744;7.086;2022-12-11T10:54:40;19.97;;;12.00;;
15764;SDS011;7983;50.744;7.086;2022-12-11T10:57:10;19.47;;;12.23;;
15764;SDS011;7983;50.744;7.086;2022-12-11T11:04:57;17.70;;;10.97;;
15764;SDS011;7983;50.744;7.086;2022-12-11T11:07:28;18.53;;;11.47;;
15764;SDS011;7983;50.744;7.086;2022-12-11T11:10:03;19.43;;;12.47;;
15764;SDS011;7983;50.744;7.086;2022-12-11T11:12:35;21.47;;;13.63;;
15764;SDS011;7983;50.744;7.086;2022-12-11T11:15:21;20.63;;;12.27;;
15764;SDS011;7983;50.744;7.086;2022-12-11T11:17:53;18.57;;;11.53;;
15764;SDS011;7983;50.744;7.086;2022-12-11T11:20:22;15.90;;;10.23;;
15764;SDS011;7983;50.744;7.086;2022-12-11T11:22:52;15.87;;;10.37;;
15764;SDS011;7983;50.744;7.086;2022-12-11T11:25:23;17.40;;;11.47;;
15764;SDS011;7983;50.744;7.086;2022-12-11T11:27:57;15.10;;;10.20;;
15764;SDS011;7983;50.744;7.086;2022-12-11T12:32:24;15.30;;;9.30;;
15764;SDS011;7983;50.744;7.086;2022-12-11T12:51:02;11.30;;;7.90;;
15764;SDS011;7983;50.744;7.086;2022-12-11T13:28:03;16.30;;;10.30;;
15764;SDS011;7983;50.744;7.086;2022-12-11T13:30:35;13.03;;;8.77;;
15764;SDS011;7983;50.744;7.086;2022-12-11T13:36:34;13.60;;;9.23;;
15764;SDS011;7983;50.744;7.086;2022-12-11T13:39:15;12.47;;;9.23;;
15764;SDS011;7983;50.744;7.086;2022-12-11T13:51:56;16.10;;;10.23;;
15764;SDS011;7983;50.744;7.086;2022-12-11T19:26:54;8.43;;;6.10;;
15764;SDS011;7983;50.744;7.086;2022-12-11T19:42:56;7.73;;;5.23;;
15764;SDS011;7983;50.744;7.086;2022-12-11T20:13:46;8.87;;;5.30;;
15764;SDS011;7983;50.744;7.086;2022-12-11T20:16:13;7.43;;;5.13;;
15764;SDS011;7983;50.744;7.086;2022-12-11T21:47:55;9.17;;;5.87;;
15764;SDS011;7983;50.744;7.086;2022-12-11T21:50:21;8.40;;;5.47;;
15764;SDS011;7983;50.744;7.086;2022-12-11T21:52:46;8.90;;;5.77;;
15764;SDS011;7983;50.744;7.086;2022-12-11T21:55:12;9.03;;;5.60;;
15764;SDS011;7983;50.744;7.086;2022-12-11T21:57:40;9.07;;;6.00;;
15764;SDS011;7983;50.744;7.086;2022-12-11T22:00:06;8.43;;;6.20;;
15764;SDS011;7983;50.744;7.086;2022-12-11T22:02:33;9.17;;;6.33;;
15764;SDS011;7983;50.744;7.086;2022-12-11T22:04:59;8.83;;;5.77;;
15764;SDS011;7983;50.744;7.086;2022-12-11T22:07:27;8.60;;;5.90;;
15764;SDS011;7983;50.744;7.086;2022-12-11T22:09:55;9.13;;;6.00;;
15764;SDS011;7983;50.744;7.086;2022-12-11T22:12:24;9.20;;;5.83;;
15764;SDS011;7983;50.744;7.086;2022-12-11T22:14:56;9.27;;;5.97;;
15764;SDS011;7983;50.744;7.086;2022-12-11T22:17:24;9.50;;;6.07;;
15764;SDS011;7983;50.744;7.086;2022-12-11T22:19:50;9.03;;;6.20;;
15764;SDS011;7983;50.744;7.086;2022-12-11T22:22:18;9.20;;;6.07;;
15764;SDS011;7983;50.744;7.086;2022-12-11T22:24:46;8.67;;;6.10;;
15764;SDS011;7983;50.744;7.086;2022-12-11T22:27:12;8.47;;;5.67;;
15764;SDS011;7983;50.744;7.086;2022-12-11T22:29:42;8.40;;;5.80;;
15764;SDS011;7983;50.744;7.086;2022-12-11T22:32:10;8.90;;;5.40;;
15764;SDS011;7983;50.744;7.086;2022-12-11T22:34:40;7.97;;;5.43;;
15764;SDS011;7983;50.744;7.086;2022-12-11T22:37:06;8.70;;;5.20;;
15764;SDS011;7983;50.744;7.086;2022-12-11T22:39:32;10.27;;;6.03;;
15764;SDS011;7983;50.744;7.086;2022-12-11T22:41:57;9.47;;;6.23;;
15764;SDS011;7983;50.744;7.086;2022-12-11T22:44:23;9.57;;;5.90;;
15764;SDS011;7983;50.744;7.086;2022-12-11T22:46:49;8.40;;;5.83;;
15764;SDS011;7983;50.744;7.086;2022-12-11T22:49:15;7.67;;;5.17;;
15764;SDS011;7983;50.744;7.086;2022-12-11T22:51:44;8.50;;;5.50;;
15764;SDS011;7983;50.744;7.086;2022-12-11T22:54:09;7.80;;;5.33;;
15764;SDS011;7983;50.744;7.086;2022-12-11T22:56:38;7.07;;;5.13;;
15764;SDS011;7983;50.744;7.086;2022-12-11T22:59:03;7.30;;;5.03;;
15764;SDS011;7983;50.744;7.086;2022-12-11T23:01:31;7.33;;;4.90;;
15764;SDS011;7983;50.744;7.086;2022-12-11T23:03:59;8.67;;;5.20;;
15764;SDS011;7983;50.744;7.086;2022-12-11T23:06:25;7.60;;;5.17;;
15764;SDS011;7983;50.744;7.086;2022-12-11T23:08:55;7.20;;;4.97;;
15764;SDS011;7983;50.744;7.086;2022-12-11T23:11:26;9.00;;;4.90;;
15764;SDS011;7983;50.744;7.086;2022-12-11T23:13:58;6.83;;;5.17;;
15764;SDS011;7983;50.744;7.086;2022-12-11T23:16:29;7.07;;;5.23;;
15764;SDS011;7983;50.744;7.086;2022-12-11T23:18:55;8.60;;;5.50;;
15764;SDS011;7983;50.744;7.086;2022-12-11T23:21:24;7.87;;;5.07;;
15764;SDS011;7983;50.744;7.086;2022-12-11T23:23:53;7.93;;;4.87;;
15764;SDS011;7983;50.744;7.086;2022-12-11T23:26:20;7.47;;;5.10;;
15764;SDS011;7983;50.744;7.086;2022-12-11T23:28:51;7.77;;;5.00;;
15764;SDS011;7983;50.744;7.086;2022-12-11T23:31:20;8.13;;;5.37;;
15764;SDS011;7983;50.744;7.086;2022-12-11T23:33:46;7.43;;;5.20;;
15764;SDS011;7983;50.744;7.086;2022-12-11T23:36:12;6.57;;;4.57;;
15764;SDS011;7983;50.744;7.086;2022-12-11T23:38:38;6.70;;;4.63;;
15764;SDS011;7983;50.744;7.086;2022-12-11T23:41:04;7.03;;;4.90;;
15764;SDS011;7983;50.744;7.086;2022-12-11T23:43:32;6.97;;;4.87;;
15764;SDS011;7983;50.744;7.086;2022-12-11T23:46:02;7.00;;;4.83;;
15764;SDS011;7983;50.744;7.086;2022-12-11T23:48:31;5.93;;;4.33;;
15764;SDS011;7983;50.744;7.086;2022-12-11T23:50:59;6.60;;;4.50;;
15764;SDS011;7983;50.744;7.086;2022-12-11T23:53:28;8.73;;;4.93;;
15764;SDS011;7983;50.744;7.086;2022-12-11T23:55:54;6.40;;;4.60;;
15764;SDS011;7983;50.744;7.086;2022-12-11T23:58:20;6.33;;;4.40;;
